sensor_id;sensor_type;location;lat;lon;timestamp;pressure;altitude;pressure_sealevel;temperature;humidity
47524;BME280;33253;42.144;25.884;2023-04-03T00:01:02;99809.41;;;9.64;88.61
47524;BME280;33253;42.144;25.884;2023-04-03T00:03:28;99726.44;;;9.18;88.17
47524;BME280;33253;42.144;25.884;2023-04-03T00:05:53;99798.88;;;9.56;88.41
47524;BME280;33253;42.144;25.884;2023-04-03T00:08:19;99795.97;;;9.45;89.26
47524;BME280;33253;42.144;25.884;2023-04-03T00:10:45;99791.00;;;9.51;88.56
47524;BME280;33253;42.144;25.884;2023-04-03T00:13:10;99794.44;;;9.52;88.55
47524;BME280;33253;42.144;25.884;2023-04-03T00:15:36;99801.47;;;9.58;88.04
47524;BME280;33253;42.144;25.884;2023-04-03T00:18:03;99804.44;;;9.41;88.76
47524;BME280;33253;42.144;25.884;2023-04-03T00:20:28;99820.75;;;9.42;88.74
47524;BME280;33253;42.144;25.884;2023-04-03T00:22:54;99835.72;;;9.26;89.23
47524;BME280;33253;42.144;25.884;2023-04-03T00:25:20;99835.50;;;9.18;90.28
47524;BME280;33253;42.144;25.884;2023-04-03T00:27:46;99781.66;;;8.99;89.41
47524;BME280;33253;42.144;25.884;2023-04-03T00:30:14;99846.22;;;9.32;88.49
47524;BME280;33253;42.144;25.884;2023-04-03T00:32:40;99846.53;;;9.16;89.28
47524;BME280;33253;42.144;25.884;2023-04-03T00:35:06;99852.75;;;9.21;89.09
47524;BME280;33253;42.144;25.884;2023-04-03T00:37:32;99816.28;;;8.57;91.16
47524;BME280;33253;42.144;25.884;2023-04-03T00:39:57;99809.50;;;8.59;92.09
47524;BME280;33253;42.144;25.884;2023-04-03T00:42:23;99836.31;;;8.92;91.52
47524;BME280;33253;42.144;25.884;2023-04-03T00:47:16;99805.06;;;8.81;91.23
47524;BME280;33253;42.144;25.884;2023-04-03T00:49:44;99831.81;;;9.12;90.76
47524;BME280;33253;42.144;25.884;2023-04-03T00:52:16;99803.31;;;9.05;89.63
47524;BME280;33253;42.144;25.884;2023-04-03T00:54:43;99837.50;;;9.27;89.69
47524;BME280;33253;42.144;25.884;2023-04-03T00:57:11;99844.72;;;9.39;89.61
47524;BME280;33253;42.144;25.884;2023-04-03T00:59:44;99795.94;;;9.16;88.86
47524;BME280;33253;42.144;25.884;2023-04-03T01:02:10;99835.44;;;9.44;88.52
47524;BME280;33253;42.144;25.884;2023-04-03T01:04:41;99794.75;;;9.34;87.64
47524;BME280;33253;42.144;25.884;2023-04-03T01:09:35;99813.25;;;9.49;87.34
47524;BME280;33253;42.144;25.884;2023-04-03T01:12:22;99769.34;;;9.17;88.66
47524;BME280;33253;42.144;25.884;2023-04-03T01:14:50;99802.34;;;9.29;88.91
47524;BME280;33253;42.144;25.884;2023-04-03T01:17:35;99819.00;;;9.13;89.90
47524;BME280;33253;42.144;25.884;2023-04-03T01:25:56;99817.94;;;8.81;91.29
47524;BME280;33253;42.144;25.884;2023-04-03T01:28:23;99822.31;;;8.83;92.06
47524;BME280;33253;42.144;25.884;2023-04-03T01:33:37;99820.94;;;8.67;92.64
47524;BME280;33253;42.144;25.884;2023-04-03T01:36:03;99822.41;;;8.61;92.50
47524;BME280;33253;42.144;25.884;2023-04-03T01:38:29;99821.84;;;8.69;92.22
47524;BME280;33253;42.144;25.884;2023-04-03T01:40:55;99816.06;;;8.75;91.05
47524;BME280;33253;42.144;25.884;2023-04-03T01:43:21;99819.44;;;8.74;91.07
47524;BME280;33253;42.144;25.884;2023-04-03T01:45:46;99810.91;;;8.75;90.47
47524;BME280;33253;42.144;25.884;2023-04-03T01:48:14;99821.19;;;8.75;90.18
47524;BME280;33253;42.144;25.884;2023-04-03T01:50:40;99820.06;;;8.67;90.38
47524;BME280;33253;42.144;25.884;2023-04-03T01:53:06;99817.28;;;8.61;89.22
47524;BME280;33253;42.144;25.884;2023-04-03T01:55:31;99823.31;;;8.61;88.48
47524;BME280;33253;42.144;25.884;2023-04-03T01:57:57;99820.41;;;8.52;88.53
47524;BME280;33253;42.144;25.884;2023-04-03T02:00:22;99832.72;;;8.36;87.58
47524;BME280;33253;42.144;25.884;2023-04-03T02:02:48;99842.19;;;8.15;88.28
47524;BME280;33253;42.144;25.884;2023-04-03T02:05:13;99841.66;;;7.99;89.19
47524;BME280;33253;42.144;25.884;2023-04-03T02:07:39;99837.69;;;8.07;88.83
47524;BME280;33253;42.144;25.884;2023-04-03T02:10:04;99846.09;;;8.28;88.23
47524;BME280;33253;42.144;25.884;2023-04-03T02:12:30;99837.72;;;8.33;88.25
47524;BME280;33253;42.144;25.884;2023-04-03T02:14:56;99797.91;;;8.22;88.03
47524;BME280;33253;42.144;25.884;2023-04-03T02:17:23;99849.19;;;8.66;87.63
47524;BME280;33253;42.144;25.884;2023-04-03T02:19:48;99793.09;;;8.31;86.64
47524;BME280;33253;42.144;25.884;2023-04-03T02:22:13;99864.94;;;8.75;86.12
47524;BME280;33253;42.144;25.884;2023-04-03T02:24:39;99824.22;;;8.63;85.77
47524;BME280;33253;42.144;25.884;2023-04-03T02:27:05;99861.59;;;8.78;85.92
47524;BME280;33253;42.144;25.884;2023-04-03T02:29:30;99858.03;;;8.74;87.06
47524;BME280;33253;42.144;25.884;2023-04-03T02:31:56;99850.31;;;8.74;87.74
47524;BME280;33253;42.144;25.884;2023-04-03T02:34:21;99849.16;;;8.41;90.27
47524;BME280;33253;42.144;25.884;2023-04-03T02:36:47;99847.78;;;8.03;93.42
47524;BME280;33253;42.144;25.884;2023-04-03T02:39:12;99847.56;;;7.97;93.09
47524;BME280;33253;42.144;25.884;2023-04-03T02:41:38;99851.56;;;7.90;91.81
47524;BME280;33253;42.144;25.884;2023-04-03T02:44:05;99849.06;;;7.91;92.07
47524;BME280;33253;42.144;25.884;2023-04-03T02:46:31;99850.69;;;7.89;92.42
47524;BME280;33253;42.144;25.884;2023-04-03T02:48:57;99846.78;;;7.99;92.91
47524;BME280;33253;42.144;25.884;2023-04-03T02:51:23;99843.91;;;8.14;92.35
47524;BME280;33253;42.144;25.884;2023-04-03T02:53:49;99857.75;;;8.18;90.91
47524;BME280;33253;42.144;25.884;2023-04-03T02:56:15;99850.69;;;8.12;90.14
47524;BME280;33253;42.144;25.884;2023-04-03T02:58:42;99861.91;;;8.14;90.00
47524;BME280;33253;42.144;25.884;2023-04-03T03:01:07;99856.13;;;7.97;90.33
47524;BME280;33253;42.144;25.884;2023-04-03T03:03:33;99869.44;;;8.09;91.08
47524;BME280;33253;42.144;25.884;2023-04-03T03:06:09;99863.75;;;8.18;90.35
47524;BME280;33253;42.144;25.884;2023-04-03T03:08:36;99872.69;;;8.28;90.50
47524;BME280;33253;42.144;25.884;2023-04-03T03:11:02;99866.19;;;8.38;89.96
47524;BME280;33253;42.144;25.884;2023-04-03T03:13:28;99864.81;;;8.46;88.66
47524;BME280;33253;42.144;25.884;2023-04-03T03:15:54;99833.34;;;8.31;88.17
47524;BME280;33253;42.144;25.884;2023-04-03T03:18:19;99864.09;;;8.50;87.45
47524;BME280;33253;42.144;25.884;2023-04-03T03:20:45;99858.00;;;8.48;87.19
47524;BME280;33253;42.144;25.884;2023-04-03T03:23:11;99863.50;;;8.35;87.40
47524;BME280;33253;42.144;25.884;2023-04-03T03:25:40;99856.63;;;8.34;87.32
47524;BME280;33253;42.144;25.884;2023-04-03T03:28:06;99865.78;;;8.27;87.05
47524;BME280;33253;42.144;25.884;2023-04-03T03:30:31;99821.84;;;7.97;87.34
47524;BME280;33253;42.144;25.884;2023-04-03T03:32:57;99868.00;;;8.16;88.37
47524;BME280;33253;42.144;25.884;2023-04-03T03:35:22;99807.44;;;7.55;88.88
47524;BME280;33253;42.144;25.884;2023-04-03T03:37:48;99867.13;;;7.70;89.78
47524;BME280;33253;42.144;25.884;2023-04-03T03:40:14;99858.47;;;7.68;91.46
47524;BME280;33253;42.144;25.884;2023-04-03T03:42:41;99850.56;;;7.64;91.61
47524;BME280;33253;42.144;25.884;2023-04-03T03:45:07;99873.31;;;7.75;91.48
47524;BME280;33253;42.144;25.884;2023-04-03T03:47:33;99878.16;;;7.90;92.08
47524;BME280;33253;42.144;25.884;2023-04-03T03:49:58;99877.50;;;7.96;91.75
47524;BME280;33253;42.144;25.884;2023-04-03T03:52:24;99829.72;;;7.78;91.51
47524;BME280;33253;42.144;25.884;2023-04-03T03:54:50;99870.09;;;8.04;90.85
47524;BME280;33253;42.144;25.884;2023-04-03T03:57:15;99866.00;;;8.09;90.14
47524;BME280;33253;42.144;25.884;2023-04-03T03:59:41;99817.81;;;7.81;90.10
47524;BME280;33253;42.144;25.884;2023-04-03T04:02:07;99862.63;;;8.10;89.43
47524;BME280;33253;42.144;25.884;2023-04-03T04:04:33;99840.41;;;7.89;87.96
47524;BME280;33253;42.144;25.884;2023-04-03T04:06:58;99844.00;;;7.70;89.22
47524;BME280;33253;42.144;25.884;2023-04-03T04:09:25;99860.38;;;7.51;91.54
47524;BME280;33253;42.144;25.884;2023-04-03T04:11:51;99862.25;;;7.55;91.94
47524;BME280;33253;42.144;25.884;2023-04-03T04:14:16;99850.44;;;7.38;94.32
47524;BME280;33253;42.144;25.884;2023-04-03T04:16:42;99850.06;;;7.28;94.84
47524;BME280;33253;42.144;25.884;2023-04-03T04:19:07;99851.94;;;7.11;96.37
47524;BME280;33253;42.144;25.884;2023-04-03T04:21:32;99850.56;;;6.99;97.29
47524;BME280;33253;42.144;25.884;2023-04-03T04:23:58;99856.38;;;6.73;99.46
47524;BME280;33253;42.144;25.884;2023-04-03T04:26:23;99864.69;;;6.28;100.00
47524;BME280;33253;42.144;25.884;2023-04-03T04:28:49;99873.84;;;6.04;100.00
47524;BME280;33253;42.144;25.884;2023-04-03T04:31:14;99878.13;;;6.03;100.00
47524;BME280;33253;42.144;25.884;2023-04-03T04:33:40;99875.38;;;6.00;100.00
47524;BME280;33253;42.144;25.884;2023-04-03T04:36:06;99884.16;;;6.05;100.00
47524;BME280;33253;42.144;25.884;2023-04-03T04:38:31;99886.72;;;6.05;100.00
47524;BME280;33253;42.144;25.884;2023-04-03T04:40:57;99900.34;;;6.04;100.00
47524;BME280;33253;42.144;25.884;2023-04-03T04:43:22;99858.00;;;5.39;100.00
47524;BME280;33253;42.144;25.884;2023-04-03T04:45:48;99886.16;;;5.39;100.00
47524;BME280;33253;42.144;25.884;2023-04-03T04:48:13;99902.69;;;5.45;100.00
47524;BME280;33253;42.144;25.884;2023-04-03T04:50:38;99896.63;;;5.61;100.00
47524;BME280;33253;42.144;25.884;2023-04-03T04:53:04;99907.75;;;5.80;100.00
47524;BME280;33253;42.144;25.884;2023-04-03T04:55:30;99904.16;;;5.94;100.00
47524;BME280;33253;42.144;25.884;2023-04-03T04:57:55;99912.78;;;6.14;100.00
47524;BME280;33253;42.144;25.884;2023-04-03T05:00:21;99911.13;;;6.35;100.00
47524;BME280;33253;42.144;25.884;2023-04-03T05:02:46;99894.31;;;6.41;100.00
47524;BME280;33253;42.144;25.884;2023-04-03T05:05:12;99921.03;;;6.86;100.00
47524;BME280;33253;42.144;25.884;2023-04-03T05:07:37;99905.47;;;7.02;100.00
47524;BME280;33253;42.144;25.884;2023-04-03T05:10:03;99918.59;;;7.29;100.00
47524;BME280;33253;42.144;25.884;2023-04-03T05:12:29;99923.91;;;7.34;100.00
47524;BME280;33253;42.144;25.884;2023-04-03T05:14:54;99908.66;;;7.39;99.57
47524;BME280;33253;42.144;25.884;2023-04-03T05:17:20;99915.97;;;7.49;98.82
47524;BME280;33253;42.144;25.884;2023-04-03T05:19:45;99908.56;;;7.57;98.57
47524;BME280;33253;42.144;25.884;2023-04-03T05:22:11;99924.69;;;7.75;98.37
47524;BME280;33253;42.144;25.884;2023-04-03T05:24:37;99922.59;;;7.65;98.59
47524;BME280;33253;42.144;25.884;2023-04-03T05:27:02;99917.47;;;7.65;99.41
47524;BME280;33253;42.144;25.884;2023-04-03T05:29:28;99910.41;;;7.61;100.00
47524;BME280;33253;42.144;25.884;2023-04-03T05:31:54;99906.03;;;7.58;100.00
47524;BME280;33253;42.144;25.884;2023-04-03T05:34:20;99890.75;;;7.61;100.00
47524;BME280;33253;42.144;25.884;2023-04-03T05:36:46;99912.16;;;7.83;100.00
47524;BME280;33253;42.144;25.884;2023-04-03T05:39:11;99907.81;;;7.82;100.00
47524;BME280;33253;42.144;25.884;2023-04-03T05:41:36;99915.00;;;7.91;100.00
47524;BME280;33253;42.144;25.884;2023-04-03T05:44:02;99916.78;;;7.92;100.00
47524;BME280;33253;42.144;25.884;2023-04-03T05:46:27;99919.53;;;7.97;100.00
47524;BME280;33253;42.144;25.884;2023-04-03T05:48:53;99924.44;;;8.13;100.00
47524;BME280;33253;42.144;25.884;2023-04-03T05:51:23;99890.72;;;8.05;100.00
47524;BME280;33253;42.144;25.884;2023-04-03T05:53:56;99911.94;;;8.22;100.00
47524;BME280;33253;42.144;25.884;2023-04-03T05:56:24;99927.13;;;8.16;100.00
47524;BME280;33253;42.144;25.884;2023-04-03T05:58:50;99935.13;;;8.24;100.00
47524;BME280;33253;42.144;25.884;2023-04-03T06:01:16;99929.84;;;8.21;100.00
47524;BME280;33253;42.144;25.884;2023-04-03T06:03:41;99942.72;;;8.21;100.00
47524;BME280;33253;42.144;25.884;2023-04-03T06:06:06;99943.81;;;8.05;100.00
47524;BME280;33253;42.144;25.884;2023-04-03T06:08:33;99948.28;;;8.09;100.00
47524;BME280;33253;42.144;25.884;2023-04-03T06:10:59;99943.47;;;7.96;100.00
47524;BME280;33253;42.144;25.884;2023-04-03T06:13:25;99944.28;;;7.94;100.00
47524;BME280;33253;42.144;25.884;2023-04-03T06:15:50;99938.13;;;7.91;100.00
47524;BME280;33253;42.144;25.884;2023-04-03T06:18:15;99939.19;;;7.96;100.00
47524;BME280;33253;42.144;25.884;2023-04-03T06:20:41;99938.22;;;7.92;100.00
47524;BME280;33253;42.144;25.884;2023-04-03T06:23:06;99936.28;;;8.09;100.00
47524;BME280;33253;42.144;25.884;2023-04-03T06:25:32;99908.06;;;8.11;100.00
47524;BME280;33253;42.144;25.884;2023-04-03T06:27:58;99938.47;;;8.46;100.00
47524;BME280;33253;42.144;25.884;2023-04-03T06:30:24;99932.81;;;8.54;100.00
47524;BME280;33253;42.144;25.884;2023-04-03T06:32:49;99932.00;;;8.55;100.00
47524;BME280;33253;42.144;25.884;2023-04-03T06:35:15;99941.22;;;8.49;100.00
47524;BME280;33253;42.144;25.884;2023-04-03T06:37:41;99938.78;;;8.53;100.00
47524;BME280;33253;42.144;25.884;2023-04-03T06:40:07;99954.00;;;8.70;100.00
47524;BME280;33253;42.144;25.884;2023-04-03T06:42:32;99955.47;;;8.87;100.00
47524;BME280;33253;42.144;25.884;2023-04-03T06:44:58;99957.50;;;8.96;100.00
47524;BME280;33253;42.144;25.884;2023-04-03T06:47:23;99961.28;;;9.06;100.00
47524;BME280;33253;42.144;25.884;2023-04-03T06:49:48;99961.81;;;9.23;100.00
47524;BME280;33253;42.144;25.884;2023-04-03T06:52:14;99958.59;;;9.29;100.00
47524;BME280;33253;42.144;25.884;2023-04-03T06:54:40;99956.53;;;9.44;100.00
47524;BME280;33253;42.144;25.884;2023-04-03T06:57:06;99942.09;;;9.49;100.00
47524;BME280;33253;42.144;25.884;2023-04-03T06:59:31;99932.47;;;9.44;99.14
47524;BME280;33253;42.144;25.884;2023-04-03T07:01:57;99927.50;;;9.50;100.00
47524;BME280;33253;42.144;25.884;2023-04-03T07:04:24;99934.66;;;9.59;100.00
47524;BME280;33253;42.144;25.884;2023-04-03T07:06:50;99938.47;;;9.70;100.00
47524;BME280;33253;42.144;25.884;2023-04-03T07:09:15;99936.50;;;9.90;100.00
47524;BME280;33253;42.144;25.884;2023-04-03T07:11:41;99934.31;;;10.02;99.82
47524;BME280;33253;42.144;25.884;2023-04-03T07:14:07;99923.56;;;10.17;99.08
47524;BME280;33253;42.144;25.884;2023-04-03T07:16:34;99925.66;;;10.29;100.00
47524;BME280;33253;42.144;25.884;2023-04-03T07:19:00;99903.88;;;10.19;99.16
47524;BME280;33253;42.144;25.884;2023-04-03T07:21:25;99926.41;;;10.27;98.04
47524;BME280;33253;42.144;25.884;2023-04-03T07:23:51;99931.13;;;10.40;97.29
47524;BME280;33253;42.144;25.884;2023-04-03T07:26:16;99941.09;;;10.57;99.01
47524;BME280;33253;42.144;25.884;2023-04-03T07:28:42;99934.44;;;10.66;97.07
47524;BME280;33253;42.144;25.884;2023-04-03T07:31:12;99936.59;;;10.81;96.71
47524;BME280;33253;42.144;25.884;2023-04-03T07:33:42;99936.56;;;10.80;97.04
47524;BME280;33253;42.144;25.884;2023-04-03T07:36:09;99913.81;;;10.66;97.80
47524;BME280;33253;42.144;25.884;2023-04-03T07:38:38;99942.16;;;10.95;97.08
47524;BME280;33253;42.144;25.884;2023-04-03T07:41:04;99907.38;;;10.84;96.26
47524;BME280;33253;42.144;25.884;2023-04-03T07:43:29;99941.72;;;11.12;94.10
47524;BME280;33253;42.144;25.884;2023-04-03T07:45:55;99909.59;;;11.02;93.73
47524;BME280;33253;42.144;25.884;2023-04-03T07:48:23;99943.34;;;11.42;93.79
47524;BME280;33253;42.144;25.884;2023-04-03T07:50:49;99941.03;;;11.53;93.39
47524;BME280;33253;42.144;25.884;2023-04-03T07:53:15;99932.50;;;11.57;95.12
47524;BME280;33253;42.144;25.884;2023-04-03T07:55:40;99926.44;;;11.56;92.83
47524;BME280;33253;42.144;25.884;2023-04-03T07:58:14;99933.47;;;11.62;92.66
47524;BME280;33253;42.144;25.884;2023-04-03T08:00:40;99924.09;;;11.65;93.96
47524;BME280;33253;42.144;25.884;2023-04-03T08:03:10;99890.19;;;11.53;94.33
47524;BME280;33253;42.144;25.884;2023-04-03T08:05:47;99932.31;;;11.86;93.01
47524;BME280;33253;42.144;25.884;2023-04-03T08:08:18;99932.41;;;11.90;93.93
47524;BME280;33253;42.144;25.884;2023-04-03T08:10:48;99918.44;;;11.84;94.38
47524;BME280;33253;42.144;25.884;2023-04-03T08:13:14;99928.38;;;12.00;94.27
47524;BME280;33253;42.144;25.884;2023-04-03T08:15:39;99922.47;;;12.07;93.77
47524;BME280;33253;42.144;25.884;2023-04-03T08:18:05;99926.13;;;12.17;93.13
47524;BME280;33253;42.144;25.884;2023-04-03T08:20:31;99920.25;;;12.24;92.03
47524;BME280;33253;42.144;25.884;2023-04-03T08:22:56;99923.81;;;12.31;92.32
47524;BME280;33253;42.144;25.884;2023-04-03T08:25:22;99878.81;;;12.23;92.15
47524;BME280;33253;42.144;25.884;2023-04-03T08:27:47;99918.28;;;12.54;91.72
47524;BME280;33253;42.144;25.884;2023-04-03T08:30:13;99909.72;;;12.58;91.42
47524;BME280;33253;42.144;25.884;2023-04-03T08:32:38;99906.38;;;12.64;90.33
47524;BME280;33253;42.144;25.884;2023-04-03T08:35:07;99905.56;;;12.66;89.74
47524;BME280;33253;42.144;25.884;2023-04-03T08:37:35;99862.88;;;12.45;90.10
47524;BME280;33253;42.144;25.884;2023-04-03T08:40:01;99899.63;;;12.73;88.95
47524;BME280;33253;42.144;25.884;2023-04-03T08:47:45;99903.50;;;12.95;88.41
47524;BME280;33253;42.144;25.884;2023-04-03T08:50:44;99901.94;;;13.04;90.75
47524;BME280;33253;42.144;25.884;2023-04-03T08:53:17;99898.44;;;13.02;92.45
47524;BME280;33253;42.144;25.884;2023-04-03T08:55:45;99898.31;;;12.94;91.75
47524;BME280;33253;42.144;25.884;2023-04-03T08:58:23;99889.34;;;12.76;91.77
47524;BME280;33253;42.144;25.884;2023-04-03T09:01:13;99902.47;;;12.86;91.23
47524;BME280;33253;42.144;25.884;2023-04-03T09:03:40;99904.31;;;12.93;92.23
47524;BME280;33253;42.144;25.884;2023-04-03T09:06:21;99862.41;;;12.67;92.14
47524;BME280;33253;42.144;25.884;2023-04-03T09:11:57;99911.28;;;12.95;91.55
47524;BME280;33253;42.144;25.884;2023-04-03T09:16:56;99904.34;;;12.94;90.46
47524;BME280;33253;42.144;25.884;2023-04-03T09:19:41;99908.59;;;12.91;91.16
47524;BME280;33253;42.144;25.884;2023-04-03T09:22:21;99832.97;;;12.61;90.45
47524;BME280;33253;42.144;25.884;2023-04-03T09:24:55;99886.19;;;12.94;91.33
47524;BME280;33253;42.144;25.884;2023-04-03T09:27:23;99876.66;;;12.92;91.05
47524;BME280;33253;42.144;25.884;2023-04-03T09:29:53;99888.88;;;12.98;91.90
47524;BME280;33253;42.144;25.884;2023-04-03T09:32:28;99886.41;;;13.07;91.36
47524;BME280;33253;42.144;25.884;2023-04-03T09:34:58;99862.94;;;12.96;91.87
47524;BME280;33253;42.144;25.884;2023-04-03T09:37:38;99891.69;;;13.11;91.14
47524;BME280;33253;42.144;25.884;2023-04-03T09:40:05;99889.94;;;13.10;90.57
47524;BME280;33253;42.144;25.884;2023-04-03T09:42:32;99881.41;;;13.15;91.25
47524;BME280;33253;42.144;25.884;2023-04-03T09:45:04;99883.19;;;13.20;90.27
47524;BME280;33253;42.144;25.884;2023-04-03T09:47:32;99854.41;;;13.03;89.27
47524;BME280;33253;42.144;25.884;2023-04-03T09:52:40;99930.81;;;13.25;87.35
47524;BME280;33253;42.144;25.884;2023-04-03T09:55:42;99935.97;;;13.24;86.57
47524;BME280;33253;42.144;25.884;2023-04-03T09:58:24;99922.81;;;13.13;87.83
47524;BME280;33253;42.144;25.884;2023-04-03T10:01:01;99930.91;;;13.30;88.23
47524;BME280;33253;42.144;25.884;2023-04-03T10:03:34;99932.78;;;13.37;88.39
47524;BME280;33253;42.144;25.884;2023-04-03T10:06:03;99884.88;;;13.17;87.99
47524;BME280;33253;42.144;25.884;2023-04-03T10:08:33;99919.00;;;13.40;88.70
47524;BME280;33253;42.144;25.884;2023-04-03T10:11:10;99911.91;;;13.33;88.50
47524;BME280;33253;42.144;25.884;2023-04-03T10:13:37;99887.56;;;13.23;90.29
47524;BME280;33253;42.144;25.884;2023-04-03T10:16:21;99895.53;;;13.34;91.96
47524;BME280;33253;42.144;25.884;2023-04-03T10:22:15;99882.81;;;13.48;94.49
47524;BME280;33253;42.144;25.884;2023-04-03T10:42:16;99860.03;;;13.30;100.00
47524;BME280;33253;42.144;25.884;2023-04-03T10:50:21;99847.13;;;13.34;100.00
47524;BME280;33253;42.144;25.884;2023-04-03T10:53:01;99849.94;;;13.47;100.00
47524;BME280;33253;42.144;25.884;2023-04-03T10:55:34;99860.47;;;13.56;100.00
47524;BME280;33253;42.144;25.884;2023-04-03T10:58:01;99804.91;;;13.38;100.00
47524;BME280;33253;42.144;25.884;2023-04-03T11:00:43;99842.41;;;13.64;100.00
47524;BME280;33253;42.144;25.884;2023-04-03T11:03:44;99845.13;;;13.71;100.00
47524;BME280;33253;42.144;25.884;2023-04-03T11:06:13;99843.50;;;13.80;100.00
47524;BME280;33253;42.144;25.884;2023-04-03T11:08:51;99844.47;;;13.88;100.00
47524;BME280;33253;42.144;25.884;2023-04-03T11:11:25;99845.44;;;13.96;100.00
47524;BME280;33253;42.144;25.884;2023-04-03T11:16:46;99832.50;;;13.99;100.00
47524;BME280;33253;42.144;25.884;2023-04-03T11:19:21;99788.13;;;13.78;100.00
47524;BME280;33253;42.144;25.884;2023-04-03T11:22:03;99824.88;;;14.12;99.65
47524;BME280;33253;42.144;25.884;2023-04-03T11:24:32;99824.09;;;14.20;100.00
47524;BME280;33253;42.144;25.884;2023-04-03T11:27:01;99814.34;;;13.99;87.53
47524;BME280;33253;42.144;25.884;2023-04-03T11:29:34;99821.25;;;13.99;90.32
47524;BME280;33253;42.144;25.884;2023-04-03T11:35:05;99821.19;;;13.91;87.69
47524;BME280;33253;42.144;25.884;2023-04-03T11:37:39;99816.91;;;13.96;90.17
47524;BME280;33253;42.144;25.884;2023-04-03T11:40:22;99803.97;;;13.99;94.66
47524;BME280;33253;42.144;25.884;2023-04-03T11:42:52;99803.97;;;13.99;96.01
47524;BME280;33253;42.144;25.884;2023-04-03T11:47:50;99808.47;;;14.14;98.46
47524;BME280;33253;42.144;25.884;2023-04-03T12:00:59;99815.91;;;13.85;100.00
47524;BME280;33253;42.144;25.884;2023-04-03T12:05:52;99804.63;;;13.83;100.00
47524;BME280;33253;42.144;25.884;2023-04-03T12:08:44;99779.28;;;13.63;100.00
47524;BME280;33253;42.144;25.884;2023-04-03T12:16:55;99757.38;;;14.08;100.00
47524;BME280;33253;42.144;25.884;2023-04-03T12:19:42;99752.03;;;13.95;100.00
47524;BME280;33253;42.144;25.884;2023-04-03T12:22:15;99767.75;;;14.12;100.00
47524;BME280;33253;42.144;25.884;2023-04-03T12:24:48;99755.81;;;14.28;100.00
47524;BME280;33253;42.144;25.884;2023-04-03T12:27:27;99755.97;;;14.42;100.00
47524;BME280;33253;42.144;25.884;2023-04-03T12:30:07;99745.56;;;14.38;100.00
47524;BME280;33253;42.144;25.884;2023-04-03T12:43:55;99725.69;;;14.45;100.00
47524;BME280;33253;42.144;25.884;2023-04-03T12:46:33;99728.34;;;14.47;100.00
47524;BME280;33253;42.144;25.884;2023-04-03T12:48:59;99699.59;;;14.31;100.00
47524;BME280;33253;42.144;25.884;2023-04-03T12:51:40;99735.28;;;14.51;100.00
47524;BME280;33253;42.144;25.884;2023-04-03T12:56:49;99724.84;;;14.45;100.00
47524;BME280;33253;42.144;25.884;2023-04-03T12:59:20;99733.59;;;14.53;100.00
47524;BME280;33253;42.144;25.884;2023-04-03T13:01:59;99742.25;;;14.55;97.27
47524;BME280;33253;42.144;25.884;2023-04-03T13:04:29;99740.53;;;14.55;94.86
47524;BME280;33253;42.144;25.884;2023-04-03T13:06:55;99743.94;;;14.51;96.85
47524;BME280;33253;42.144;25.884;2023-04-03T13:12:21;99739.63;;;14.53;98.96
47524;BME280;33253;42.144;25.884;2023-04-03T13:14:58;99732.63;;;14.43;99.07
47524;BME280;33253;42.144;25.884;2023-04-03T13:17:25;99728.28;;;14.42;99.70
47524;BME280;33253;42.144;25.884;2023-04-03T13:19:51;99730.91;;;14.45;98.12
47524;BME280;33253;42.144;25.884;2023-04-03T13:24:46;99719.69;;;14.51;96.32
47524;BME280;33253;42.144;25.884;2023-04-03T13:27:14;99720.50;;;14.40;97.02
47524;BME280;33253;42.144;25.884;2023-04-03T13:29:40;99711.81;;;14.42;98.10
47524;BME280;33253;42.144;25.884;2023-04-03T13:32:06;99717.91;;;14.44;97.95
47524;BME280;33253;42.144;25.884;2023-04-03T13:34:42;99679.63;;;14.21;98.21
47524;BME280;33253;42.144;25.884;2023-04-03T13:37:29;99714.44;;;14.45;96.71
47524;BME280;33253;42.144;25.884;2023-04-03T13:40:04;99678.84;;;14.30;nan
47524;BME280;33253;42.144;25.884;2023-04-03T13:42:38;99706.66;;;14.46;98.09
47524;BME280;33253;42.144;25.884;2023-04-03T13:45:26;99690.22;;;14.46;98.10
47524;BME280;33253;42.144;25.884;2023-04-03T13:48:07;99695.41;;;14.46;97.78
47524;BME280;33253;42.144;25.884;2023-04-03T13:53:21;99682.44;;;14.46;97.43
47524;BME280;33253;42.144;25.884;2023-04-03T13:56:08;99675.50;;;14.45;98.36
47524;BME280;33253;42.144;25.884;2023-04-03T13:58:36;99680.69;;;14.46;100.00
47524;BME280;33253;42.144;25.884;2023-04-03T14:01:07;99666.84;;;14.46;99.77
47524;BME280;33253;42.144;25.884;2023-04-03T14:05:59;99659.06;;;14.46;100.00
47524;BME280;33253;42.144;25.884;2023-04-03T14:08:26;99654.66;;;14.38;100.00
47524;BME280;33253;42.144;25.884;2023-04-03T14:10:52;99650.38;;;14.40;100.00
47524;BME280;33253;42.144;25.884;2023-04-03T14:13:19;99652.13;;;14.43;100.00
47524;BME280;33253;42.144;25.884;2023-04-03T14:15:46;99644.28;;;14.42;100.00
47524;BME280;33253;42.144;25.884;2023-04-03T14:18:16;99639.94;;;14.34;100.00
47524;BME280;33253;42.144;25.884;2023-04-03T14:20:43;99617.31;;;14.21;100.00
47524;BME280;33253;42.144;25.884;2023-04-03T14:23:08;99654.63;;;14.32;100.00
47524;BME280;33253;42.144;25.884;2023-04-03T14:25:34;99649.44;;;14.34;100.00
47524;BME280;33253;42.144;25.884;2023-04-03T14:28:00;99639.03;;;14.32;100.00
47524;BME280;33253;42.144;25.884;2023-04-03T14:30:33;99597.38;;;14.17;100.00
47524;BME280;33253;42.144;25.884;2023-04-03T14:32:59;99628.69;;;14.38;100.00
47524;BME280;33253;42.144;25.884;2023-04-03T14:35:26;99613.97;;;14.37;100.00
47524;BME280;33253;42.144;25.884;2023-04-03T14:37:53;99612.28;;;14.39;100.00
47524;BME280;33253;42.144;25.884;2023-04-03T14:40:23;99606.22;;;14.44;100.00
47524;BME280;33253;42.144;25.884;2023-04-03T14:42:49;99598.44;;;14.40;100.00
47524;BME280;33253;42.144;25.884;2023-04-03T14:45:16;99594.91;;;14.34;100.00